sensor_id;sensor_type;location;lat;lon;timestamp;temperature;humidity
21261;DHT22;10788;47.930;9.766;2023-07-31T00:00:06;14.70;99.90
21261;DHT22;10788;47.930;9.766;2023-07-31T00:02:34;14.80;99.90
21261;DHT22;10788;47.930;9.766;2023-07-31T00:05:00;14.80;99.90
21261;DHT22;10788;47.930;9.766;2023-07-31T00:07:26;14.80;99.90
21261;DHT22;10788;47.930;9.766;2023-07-31T00:09:52;14.80;99.90
21261;DHT22;10788;47.930;9.766;2023-07-31T00:12:19;14.80;99.90
21261;DHT22;10788;47.930;9.766;2023-07-31T00:14:45;14.80;99.90
21261;DHT22;10788;47.930;9.766;2023-07-31T00:17:11;14.80;99.90
21261;DHT22;10788;47.930;9.766;2023-07-31T00:19:36;14.80;99.90
21261;DHT22;10788;47.930;9.766;2023-07-31T00:22:02;14.80;99.90
21261;DHT22;10788;47.930;9.766;2023-07-31T00:24:28;14.80;99.90
21261;DHT22;10788;47.930;9.766;2023-07-31T00:26:53;14.80;99.90
21261;DHT22;10788;47.930;9.766;2023-07-31T00:29:19;14.70;99.90
21261;DHT22;10788;47.930;9.766;2023-07-31T00:31:45;14.70;99.90
21261;DHT22;10788;47.930;9.766;2023-07-31T00:34:10;14.60;99.90
21261;DHT22;10788;47.930;9.766;2023-07-31T00:36:36;14.60;99.90
21261;DHT22;10788;47.930;9.766;2023-07-31T00:39:01;14.60;99.90
21261;DHT22;10788;47.930;9.766;2023-07-31T00:41:27;14.50;99.90
21261;DHT22;10788;47.930;9.766;2023-07-31T00:43:52;14.50;99.90
21261;DHT22;10788;47.930;9.766;2023-07-31T00:46:18;14.50;99.90
21261;DHT22;10788;47.930;9.766;2023-07-31T00:48:44;14.50;99.90
21261;DHT22;10788;47.930;9.766;2023-07-31T00:51:10;14.50;99.90
21261;DHT22;10788;47.930;9.766;2023-07-31T00:53:36;14.50;99.90
21261;DHT22;10788;47.930;9.766;2023-07-31T00:56:02;14.50;99.90
21261;DHT22;10788;47.930;9.766;2023-07-31T00:58:28;14.50;99.90
21261;DHT22;10788;47.930;9.766;2023-07-31T01:00:54;14.50;99.90
21261;DHT22;10788;47.930;9.766;2023-07-31T01:03:19;14.50;99.90
21261;DHT22;10788;47.930;9.766;2023-07-31T01:06:09;14.40;99.90
21261;DHT22;10788;47.930;9.766;2023-07-31T01:09:03;14.50;99.90
21261;DHT22;10788;47.930;9.766;2023-07-31T01:11:33;14.50;99.90
21261;DHT22;10788;47.930;9.766;2023-07-31T01:14:00;14.50;99.90
21261;DHT22;10788;47.930;9.766;2023-07-31T01:16:26;14.50;99.90
21261;DHT22;10788;47.930;9.766;2023-07-31T01:18:52;14.50;99.90
21261;DHT22;10788;47.930;9.766;2023-07-31T01:24:10;14.40;99.90
21261;DHT22;10788;47.930;9.766;2023-07-31T01:26:42;14.30;99.90
21261;DHT22;10788;47.930;9.766;2023-07-31T01:29:35;14.30;99.90
21261;DHT22;10788;47.930;9.766;2023-07-31T01:32:05;14.30;99.90
21261;DHT22;10788;47.930;9.766;2023-07-31T01:34:32;14.30;99.90
21261;DHT22;10788;47.930;9.766;2023-07-31T01:36:58;14.30;99.90
21261;DHT22;10788;47.930;9.766;2023-07-31T01:39:24;14.40;99.90
21261;DHT22;10788;47.930;9.766;2023-07-31T01:41:50;14.40;99.90
21261;DHT22;10788;47.930;9.766;2023-07-31T01:44:16;14.40;99.90
21261;DHT22;10788;47.930;9.766;2023-07-31T01:46:42;14.40;99.90
21261;DHT22;10788;47.930;9.766;2023-07-31T01:49:07;14.40;99.90
21261;DHT22;10788;47.930;9.766;2023-07-31T01:51:33;14.30;99.90
21261;DHT22;10788;47.930;9.766;2023-07-31T01:54:00;14.40;99.90
21261;DHT22;10788;47.930;9.766;2023-07-31T01:56:26;14.40;99.90
21261;DHT22;10788;47.930;9.766;2023-07-31T01:58:52;14.40;99.90
21261;DHT22;10788;47.930;9.766;2023-07-31T02:01:17;14.40;99.90
21261;DHT22;10788;47.930;9.766;2023-07-31T02:03:43;14.40;99.90
21261;DHT22;10788;47.930;9.766;2023-07-31T02:06:08;14.40;99.90
21261;DHT22;10788;47.930;9.766;2023-07-31T02:08:34;14.40;99.90
21261;DHT22;10788;47.930;9.766;2023-07-31T02:10:59;14.30;99.90
21261;DHT22;10788;47.930;9.766;2023-07-31T02:13:25;14.40;99.90
21261;DHT22;10788;47.930;9.766;2023-07-31T02:15:51;14.50;99.90
21261;DHT22;10788;47.930;9.766;2023-07-31T02:18:17;14.40;99.90
21261;DHT22;10788;47.930;9.766;2023-07-31T02:20:42;14.40;99.90
21261;DHT22;10788;47.930;9.766;2023-07-31T02:23:08;14.40;99.90
21261;DHT22;10788;47.930;9.766;2023-07-31T02:25:34;14.40;99.90
21261;DHT22;10788;47.930;9.766;2023-07-31T02:28:00;14.40;99.90
21261;DHT22;10788;47.930;9.766;2023-07-31T02:30:25;14.40;99.90
21261;DHT22;10788;47.930;9.766;2023-07-31T02:32:51;14.40;99.90
21261;DHT22;10788;47.930;9.766;2023-07-31T02:35:16;14.40;99.90
21261;DHT22;10788;47.930;9.766;2023-07-31T02:37:44;14.50;99.90
21261;DHT22;10788;47.930;9.766;2023-07-31T02:40:10;14.50;99.90
21261;DHT22;10788;47.930;9.766;2023-07-31T02:42:35;14.50;99.90
21261;DHT22;10788;47.930;9.766;2023-07-31T02:45:01;14.50;99.90
21261;DHT22;10788;47.930;9.766;2023-07-31T02:47:26;14.50;99.90
21261;DHT22;10788;47.930;9.766;2023-07-31T02:49:52;14.50;99.90
21261;DHT22;10788;47.930;9.766;2023-07-31T02:52:18;14.50;99.90
21261;DHT22;10788;47.930;9.766;2023-07-31T02:54:43;14.60;99.90
21261;DHT22;10788;47.930;9.766;2023-07-31T02:57:15;14.50;99.90
21261;DHT22;10788;47.930;9.766;2023-07-31T02:59:41;14.50;99.90
21261;DHT22;10788;47.930;9.766;2023-07-31T03:02:07;14.50;99.90
21261;DHT22;10788;47.930;9.766;2023-07-31T03:04:32;14.40;99.90
21261;DHT22;10788;47.930;9.766;2023-07-31T03:06:58;14.40;99.90
21261;DHT22;10788;47.930;9.766;2023-07-31T03:09:24;14.50;99.90
21261;DHT22;10788;47.930;9.766;2023-07-31T03:11:49;14.40;99.90
21261;DHT22;10788;47.930;9.766;2023-07-31T03:14:15;14.40;99.90
21261;DHT22;10788;47.930;9.766;2023-07-31T03:16:40;14.40;99.90
21261;DHT22;10788;47.930;9.766;2023-07-31T03:19:06;14.30;99.90
21261;DHT22;10788;47.930;9.766;2023-07-31T03:21:31;14.40;99.90
21261;DHT22;10788;47.930;9.766;2023-07-31T03:23:57;14.40;99.90
21261;DHT22;10788;47.930;9.766;2023-07-31T03:26:23;14.40;99.90
21261;DHT22;10788;47.930;9.766;2023-07-31T03:28:48;14.30;99.90
21261;DHT22;10788;47.930;9.766;2023-07-31T03:31:15;14.30;99.90
21261;DHT22;10788;47.930;9.766;2023-07-31T03:33:40;14.30;99.90
21261;DHT22;10788;47.930;9.766;2023-07-31T03:36:06;14.30;99.90
21261;DHT22;10788;47.930;9.766;2023-07-31T03:38:31;14.30;99.90
21261;DHT22;10788;47.930;9.766;2023-07-31T03:40:57;14.30;99.90
21261;DHT22;10788;47.930;9.766;2023-07-31T03:43:24;14.30;99.90
21261;DHT22;10788;47.930;9.766;2023-07-31T03:45:50;14.30;99.90
21261;DHT22;10788;47.930;9.766;2023-07-31T03:48:16;14.30;99.90
21261;DHT22;10788;47.930;9.766;2023-07-31T03:50:42;14.20;99.90
21261;DHT22;10788;47.930;9.766;2023-07-31T03:53:07;14.20;99.90
21261;DHT22;10788;47.930;9.766;2023-07-31T03:55:33;14.20;99.90
21261;DHT22;10788;47.930;9.766;2023-07-31T03:57:58;14.20;99.90
21261;DHT22;10788;47.930;9.766;2023-07-31T04:00:26;14.20;99.90
21261;DHT22;10788;47.930;9.766;2023-07-31T04:02:55;14.20;99.90
21261;DHT22;10788;47.930;9.766;2023-07-31T04:05:21;14.10;99.90
21261;DHT22;10788;47.930;9.766;2023-07-31T04:07:46;14.20;99.90
21261;DHT22;10788;47.930;9.766;2023-07-31T04:10:12;14.20;99.90
21261;DHT22;10788;47.930;9.766;2023-07-31T04:12:37;14.10;99.90
21261;DHT22;10788;47.930;9.766;2023-07-31T04:15:03;14.10;99.90
21261;DHT22;10788;47.930;9.766;2023-07-31T04:17:29;14.00;99.90
21261;DHT22;10788;47.930;9.766;2023-07-31T04:19:54;14.10;99.90
21261;DHT22;10788;47.930;9.766;2023-07-31T04:22:20;14.00;99.90
21261;DHT22;10788;47.930;9.766;2023-07-31T04:24:46;14.00;99.90
21261;DHT22;10788;47.930;9.766;2023-07-31T04:27:11;14.00;99.90
21261;DHT22;10788;47.930;9.766;2023-07-31T04:29:37;13.90;99.90
21261;DHT22;10788;47.930;9.766;2023-07-31T04:32:05;14.00;99.90
21261;DHT22;10788;47.930;9.766;2023-07-31T04:34:31;14.00;99.90
21261;DHT22;10788;47.930;9.766;2023-07-31T04:36:56;13.90;99.90
21261;DHT22;10788;47.930;9.766;2023-07-31T04:39:22;14.00;99.90
21261;DHT22;10788;47.930;9.766;2023-07-31T04:41:47;14.00;99.90
21261;DHT22;10788;47.930;9.766;2023-07-31T04:44:13;14.00;99.90
21261;DHT22;10788;47.930;9.766;2023-07-31T04:46:39;13.90;99.90
21261;DHT22;10788;47.930;9.766;2023-07-31T04:49:04;14.00;99.90
21261;DHT22;10788;47.930;9.766;2023-07-31T04:51:30;13.90;99.90
21261;DHT22;10788;47.930;9.766;2023-07-31T04:53:56;13.90;99.90
21261;DHT22;10788;47.930;9.766;2023-07-31T04:56:22;14.00;99.90
21261;DHT22;10788;47.930;9.766;2023-07-31T04:58:47;13.90;99.90
21261;DHT22;10788;47.930;9.766;2023-07-31T05:01:13;13.90;99.90
21261;DHT22;10788;47.930;9.766;2023-07-31T05:03:38;13.90;99.90
21261;DHT22;10788;47.930;9.766;2023-07-31T05:06:04;14.00;99.90
21261;DHT22;10788;47.930;9.766;2023-07-31T05:08:30;14.00;99.90
21261;DHT22;10788;47.930;9.766;2023-07-31T05:10:55;14.00;99.90
21261;DHT22;10788;47.930;9.766;2023-07-31T05:13:21;14.00;99.90
21261;DHT22;10788;47.930;9.766;2023-07-31T05:15:46;14.00;99.90
21261;DHT22;10788;47.930;9.766;2023-07-31T05:18:14;14.00;99.90
21261;DHT22;10788;47.930;9.766;2023-07-31T05:20:40;14.00;99.90
21261;DHT22;10788;47.930;9.766;2023-07-31T05:23:06;14.10;99.90
21261;DHT22;10788;47.930;9.766;2023-07-31T05:25:31;14.10;99.90
21261;DHT22;10788;47.930;9.766;2023-07-31T05:27:57;14.10;99.90
21261;DHT22;10788;47.930;9.766;2023-07-31T05:30:23;14.20;99.90
21261;DHT22;10788;47.930;9.766;2023-07-31T05:32:48;14.20;99.90
21261;DHT22;10788;47.930;9.766;2023-07-31T05:35:14;14.20;99.90
21261;DHT22;10788;47.930;9.766;2023-07-31T05:37:39;14.30;99.90
21261;DHT22;10788;47.930;9.766;2023-07-31T05:40:05;14.40;99.90
21261;DHT22;10788;47.930;9.766;2023-07-31T05:42:31;14.40;99.90
21261;DHT22;10788;47.930;9.766;2023-07-31T05:45:02;14.50;99.90
21261;DHT22;10788;47.930;9.766;2023-07-31T05:47:31;14.60;99.90
21261;DHT22;10788;47.930;9.766;2023-07-31T05:50:03;14.60;99.90
21261;DHT22;10788;47.930;9.766;2023-07-31T05:52:28;14.70;99.90
21261;DHT22;10788;47.930;9.766;2023-07-31T05:54:54;14.90;99.90
21261;DHT22;10788;47.930;9.766;2023-07-31T05:57:20;15.00;99.90
21261;DHT22;10788;47.930;9.766;2023-07-31T05:59:46;15.10;99.90
21261;DHT22;10788;47.930;9.766;2023-07-31T06:02:12;15.30;99.90
21261;DHT22;10788;47.930;9.766;2023-07-31T06:04:38;15.40;99.90
21261;DHT22;10788;47.930;9.766;2023-07-31T06:07:04;15.50;99.90
21261;DHT22;10788;47.930;9.766;2023-07-31T06:09:30;15.60;99.90
21261;DHT22;10788;47.930;9.766;2023-07-31T06:11:55;15.60;99.90
21261;DHT22;10788;47.930;9.766;2023-07-31T06:14:21;15.70;99.90
21261;DHT22;10788;47.930;9.766;2023-07-31T06:16:47;15.70;99.90
21261;DHT22;10788;47.930;9.766;2023-07-31T06:19:12;15.80;99.90
21261;DHT22;10788;47.930;9.766;2023-07-31T06:21:38;15.80;99.90
21261;DHT22;10788;47.930;9.766;2023-07-31T06:24:07;15.80;99.90
21261;DHT22;10788;47.930;9.766;2023-07-31T06:26:33;15.80;99.90
21261;DHT22;10788;47.930;9.766;2023-07-31T06:28:58;15.80;99.90
21261;DHT22;10788;47.930;9.766;2023-07-31T06:31:24;15.80;99.90
21261;DHT22;10788;47.930;9.766;2023-07-31T06:33:51;15.90;99.90
21261;DHT22;10788;47.930;9.766;2023-07-31T06:36:17;15.90;99.90
21261;DHT22;10788;47.930;9.766;2023-07-31T06:38:43;16.00;99.90
21261;DHT22;10788;47.930;9.766;2023-07-31T06:41:08;16.20;99.90
21261;DHT22;10788;47.930;9.766;2023-07-31T06:43:35;16.30;99.90
21261;DHT22;10788;47.930;9.766;2023-07-31T06:46:05;16.30;99.90
21261;DHT22;10788;47.930;9.766;2023-07-31T06:48:32;16.30;99.90
21261;DHT22;10788;47.930;9.766;2023-07-31T06:50:58;16.40;99.90
21261;DHT22;10788;47.930;9.766;2023-07-31T06:53:24;16.50;99.90
21261;DHT22;10788;47.930;9.766;2023-07-31T06:55:49;16.60;99.90
21261;DHT22;10788;47.930;9.766;2023-07-31T06:58:17;16.60;99.90
21261;DHT22;10788;47.930;9.766;2023-07-31T07:00:42;16.60;99.90
21261;DHT22;10788;47.930;9.766;2023-07-31T07:03:08;16.60;99.90
21261;DHT22;10788;47.930;9.766;2023-07-31T07:05:34;16.60;99.90
21261;DHT22;10788;47.930;9.766;2023-07-31T07:08:00;16.60;99.90
21261;DHT22;10788;47.930;9.766;2023-07-31T07:10:25;16.70;99.90
21261;DHT22;10788;47.930;9.766;2023-07-31T07:12:51;16.70;99.90
21261;DHT22;10788;47.930;9.766;2023-07-31T07:15:16;16.60;99.90
21261;DHT22;10788;47.930;9.766;2023-07-31T07:17:42;16.60;99.90
21261;DHT22;10788;47.930;9.766;2023-07-31T07:20:08;16.60;99.90
21261;DHT22;10788;47.930;9.766;2023-07-31T07:22:34;16.70;99.90
21261;DHT22;10788;47.930;9.766;2023-07-31T07:24:59;16.70;99.90
21261;DHT22;10788;47.930;9.766;2023-07-31T07:27:25;16.80;99.90
21261;DHT22;10788;47.930;9.766;2023-07-31T07:29:51;16.90;99.90
21261;DHT22;10788;47.930;9.766;2023-07-31T07:32:18;16.90;99.90
21261;DHT22;10788;47.930;9.766;2023-07-31T07:34:44;16.90;99.90
21261;DHT22;10788;47.930;9.766;2023-07-31T07:37:09;16.80;99.90
21261;DHT22;10788;47.930;9.766;2023-07-31T07:39:35;16.90;99.90
21261;DHT22;10788;47.930;9.766;2023-07-31T07:42:00;16.90;99.90
21261;DHT22;10788;47.930;9.766;2023-07-31T07:44:26;16.90;99.90
21261;DHT22;10788;47.930;9.766;2023-07-31T07:46:52;16.90;99.90
21261;DHT22;10788;47.930;9.766;2023-07-31T07:49:17;17.20;99.90
21261;DHT22;10788;47.930;9.766;2023-07-31T07:51:43;17.20;99.90
21261;DHT22;10788;47.930;9.766;2023-07-31T07:54:09;17.20;99.90
21261;DHT22;10788;47.930;9.766;2023-07-31T07:56:34;17.40;99.90
21261;DHT22;10788;47.930;9.766;2023-07-31T07:59:01;17.40;99.90
21261;DHT22;10788;47.930;9.766;2023-07-31T08:01:27;17.60;99.90
21261;DHT22;10788;47.930;9.766;2023-07-31T08:03:53;17.60;99.90
21261;DHT22;10788;47.930;9.766;2023-07-31T08:06:18;17.60;99.90
21261;DHT22;10788;47.930;9.766;2023-07-31T08:08:44;17.70;99.90
21261;DHT22;10788;47.930;9.766;2023-07-31T08:11:10;17.50;99.90
21261;DHT22;10788;47.930;9.766;2023-07-31T08:13:35;17.50;99.90
21261;DHT22;10788;47.930;9.766;2023-07-31T08:16:03;17.50;99.90
21261;DHT22;10788;47.930;9.766;2023-07-31T08:18:28;17.60;99.90
21261;DHT22;10788;47.930;9.766;2023-07-31T08:20:54;17.80;99.90
21261;DHT22;10788;47.930;9.766;2023-07-31T08:23:19;18.00;99.90
21261;DHT22;10788;47.930;9.766;2023-07-31T08:25:45;18.10;99.90
21261;DHT22;10788;47.930;9.766;2023-07-31T08:28:11;18.10;99.90
21261;DHT22;10788;47.930;9.766;2023-07-31T08:30:37;18.10;99.90
21261;DHT22;10788;47.930;9.766;2023-07-31T08:33:03;18.20;99.90
21261;DHT22;10788;47.930;9.766;2023-07-31T08:35:28;18.10;99.90
21261;DHT22;10788;47.930;9.766;2023-07-31T08:37:54;18.20;99.90
21261;DHT22;10788;47.930;9.766;2023-07-31T08:40:20;18.40;99.90
21261;DHT22;10788;47.930;9.766;2023-07-31T08:42:49;18.40;99.90
21261;DHT22;10788;47.930;9.766;2023-07-31T08:45:19;18.70;99.90
21261;DHT22;10788;47.930;9.766;2023-07-31T08:47:49;18.90;99.90
21261;DHT22;10788;47.930;9.766;2023-07-31T08:50:20;19.20;99.90
21261;DHT22;10788;47.930;9.766;2023-07-31T08:52:47;19.50;99.90
21261;DHT22;10788;47.930;9.766;2023-07-31T08:55:13;19.70;99.90
21261;DHT22;10788;47.930;9.766;2023-07-31T08:57:39;20.00;99.90
21261;DHT22;10788;47.930;9.766;2023-07-31T09:00:06;20.30;99.90
21261;DHT22;10788;47.930;9.766;2023-07-31T09:02:45;20.50;99.90
21261;DHT22;10788;47.930;9.766;2023-07-31T09:05:12;20.70;99.90
21261;DHT22;10788;47.930;9.766;2023-07-31T09:07:38;20.40;99.90
21261;DHT22;10788;47.930;9.766;2023-07-31T09:10:05;20.40;99.90
21261;DHT22;10788;47.930;9.766;2023-07-31T09:12:31;20.40;99.90
21261;DHT22;10788;47.930;9.766;2023-07-31T09:15:00;20.40;99.90
21261;DHT22;10788;47.930;9.766;2023-07-31T09:17:34;20.60;99.90
21261;DHT22;10788;47.930;9.766;2023-07-31T09:20:17;21.00;99.90
21261;DHT22;10788;47.930;9.766;2023-07-31T09:22:44;21.40;99.90
21261;DHT22;10788;47.930;9.766;2023-07-31T09:25:28;21.80;99.90
21261;DHT22;10788;47.930;9.766;2023-07-31T09:28:08;22.00;99.90
21261;DHT22;10788;47.930;9.766;2023-07-31T09:31:03;22.10;99.90
21261;DHT22;10788;47.930;9.766;2023-07-31T09:33:46;21.70;99.90
21261;DHT22;10788;47.930;9.766;2023-07-31T09:36:14;21.40;99.90
21261;DHT22;10788;47.930;9.766;2023-07-31T09:38:40;21.30;99.90
21261;DHT22;10788;47.930;9.766;2023-07-31T09:41:06;21.30;99.90
21261;DHT22;10788;47.930;9.766;2023-07-31T09:43:34;21.40;99.90
21261;DHT22;10788;47.930;9.766;2023-07-31T09:45:59;21.60;99.90
21261;DHT22;10788;47.930;9.766;2023-07-31T09:48:25;21.30;99.90
21261;DHT22;10788;47.930;9.766;2023-07-31T09:50:53;21.30;99.90
21261;DHT22;10788;47.930;9.766;2023-07-31T09:53:28;21.60;99.90
21261;DHT22;10788;47.930;9.766;2023-07-31T09:55:54;21.70;99.90
21261;DHT22;10788;47.930;9.766;2023-07-31T09:58:22;21.80;99.90
21261;DHT22;10788;47.930;9.766;2023-07-31T10:00:47;22.00;99.90
21261;DHT22;10788;47.930;9.766;2023-07-31T10:03:14;22.40;99.90
21261;DHT22;10788;47.930;9.766;2023-07-31T10:05:46;22.70;99.90
21261;DHT22;10788;47.930;9.766;2023-07-31T10:08:15;22.90;99.90
21261;DHT22;10788;47.930;9.766;2023-07-31T10:10:42;23.30;99.90
21261;DHT22;10788;47.930;9.766;2023-07-31T10:13:08;23.10;99.90
21261;DHT22;10788;47.930;9.766;2023-07-31T10:15:34;22.80;99.90
21261;DHT22;10788;47.930;9.766;2023-07-31T10:18:01;22.70;99.90
21261;DHT22;10788;47.930;9.766;2023-07-31T10:20:28;22.30;99.90
21261;DHT22;10788;47.930;9.766;2023-07-31T10:22:57;22.20;99.90
21261;DHT22;10788;47.930;9.766;2023-07-31T10:25:26;22.20;99.90
21261;DHT22;10788;47.930;9.766;2023-07-31T10:27:53;22.30;99.90
21261;DHT22;10788;47.930;9.766;2023-07-31T10:30:22;22.40;99.90
21261;DHT22;10788;47.930;9.766;2023-07-31T10:32:51;22.50;99.90
21261;DHT22;10788;47.930;9.766;2023-07-31T10:35:18;22.50;99.90
21261;DHT22;10788;47.930;9.766;2023-07-31T10:37:44;22.60;99.90
21261;DHT22;10788;47.930;9.766;2023-07-31T10:40:16;22.60;99.90
21261;DHT22;10788;47.930;9.766;2023-07-31T10:42:49;22.70;99.90
21261;DHT22;10788;47.930;9.766;2023-07-31T10:48:02;22.90;99.90
21261;DHT22;10788;47.930;9.766;2023-07-31T10:50:29;23.00;99.90
21261;DHT22;10788;47.930;9.766;2023-07-31T10:52:58;23.10;99.90
21261;DHT22;10788;47.930;9.766;2023-07-31T10:55:43;23.20;99.90
21261;DHT22;10788;47.930;9.766;2023-07-31T10:58:12;23.30;99.90
21261;DHT22;10788;47.930;9.766;2023-07-31T11:00:43;23.40;99.90
21261;DHT22;10788;47.930;9.766;2023-07-31T11:03:09;23.40;99.90
21261;DHT22;10788;47.930;9.766;2023-07-31T11:08:31;23.50;99.90
21261;DHT22;10788;47.930;9.766;2023-07-31T11:13:49;23.60;99.90
21261;DHT22;10788;47.930;9.766;2023-07-31T11:16:16;23.70;99.90
21261;DHT22;10788;47.930;9.766;2023-07-31T11:18:46;23.50;99.90
21261;DHT22;10788;47.930;9.766;2023-07-31T11:21:25;23.60;99.90
21261;DHT22;10788;47.930;9.766;2023-07-31T11:23:53;23.60;99.90
21261;DHT22;10788;47.930;9.766;2023-07-31T11:26:19;23.70;99.90
21261;DHT22;10788;47.930;9.766;2023-07-31T11:28:47;23.80;99.90
21261;DHT22;10788;47.930;9.766;2023-07-31T11:31:13;23.80;99.90
21261;DHT22;10788;47.930;9.766;2023-07-31T11:33:38;23.70;99.90
21261;DHT22;10788;47.930;9.766;2023-07-31T11:36:04;23.80;99.90
21261;DHT22;10788;47.930;9.766;2023-07-31T11:38:34;23.90;99.90
21261;DHT22;10788;47.930;9.766;2023-07-31T11:41:02;23.90;99.90
21261;DHT22;10788;47.930;9.766;2023-07-31T11:43:28;23.80;99.90
21261;DHT22;10788;47.930;9.766;2023-07-31T11:45:56;23.90;99.90
21261;DHT22;10788;47.930;9.766;2023-07-31T11:48:33;23.80;99.90
21261;DHT22;10788;47.930;9.766;2023-07-31T11:51:01;23.80;99.90
21261;DHT22;10788;47.930;9.766;2023-07-31T11:53:45;23.90;99.90
21261;DHT22;10788;47.930;9.766;2023-07-31T11:56:20;23.90;99.90
21261;DHT22;10788;47.930;9.766;2023-07-31T11:58:49;23.80;99.90
21261;DHT22;10788;47.930;9.766;2023-07-31T12:01:16;23.70;99.90
21261;DHT22;10788;47.930;9.766;2023-07-31T12:03:43;23.70;99.90
21261;DHT22;10788;47.930;9.766;2023-07-31T12:06:09;23.50;99.90
21261;DHT22;10788;47.930;9.766;2023-07-31T12:08:36;23.60;99.90
21261;DHT22;10788;47.930;9.766;2023-07-31T12:11:03;23.70;99.90
21261;DHT22;10788;47.930;9.766;2023-07-31T12:13:30;23.70;99.90
21261;DHT22;10788;47.930;9.766;2023-07-31T12:15:58;23.60;99.90
21261;DHT22;10788;47.930;9.766;2023-07-31T12:18:26;23.50;99.90
21261;DHT22;10788;47.930;9.766;2023-07-31T12:21:00;23.40;99.90
21261;DHT22;10788;47.930;9.766;2023-07-31T12:23:27;23.30;99.90
21261;DHT22;10788;47.930;9.766;2023-07-31T12:31:09;23.30;99.90
21261;DHT22;10788;47.930;9.766;2023-07-31T12:33:36;23.20;99.90
21261;DHT22;10788;47.930;9.766;2023-07-31T12:36:06;23.10;99.90
21261;DHT22;10788;47.930;9.766;2023-07-31T12:38:32;23.00;99.90
21261;DHT22;10788;47.930;9.766;2023-07-31T12:40:57;22.90;99.90
21261;DHT22;10788;47.930;9.766;2023-07-31T12:43:23;22.90;99.90
21261;DHT22;10788;47.930;9.766;2023-07-31T12:45:49;23.00;99.90
21261;DHT22;10788;47.930;9.766;2023-07-31T12:48:14;22.80;99.90
21261;DHT22;10788;47.930;9.766;2023-07-31T12:50:40;23.10;99.90
21261;DHT22;10788;47.930;9.766;2023-07-31T12:53:06;23.20;99.90
21261;DHT22;10788;47.930;9.766;2023-07-31T12:55:32;23.30;99.90
21261;DHT22;10788;47.930;9.766;2023-07-31T12:58:03;23.50;99.90
21261;DHT22;10788;47.930;9.766;2023-07-31T13:00:28;23.60;99.90
21261;DHT22;10788;47.930;9.766;2023-07-31T13:02:54;23.70;99.90
21261;DHT22;10788;47.930;9.766;2023-07-31T13:05:20;23.70;99.90
21261;DHT22;10788;47.930;9.766;2023-07-31T13:07:47;23.60;99.90
21261;DHT22;10788;47.930;9.766;2023-07-31T13:10:13;23.50;99.90
21261;DHT22;10788;47.930;9.766;2023-07-31T13:12:39;23.40;99.90
21261;DHT22;10788;47.930;9.766;2023-07-31T13:15:05;23.30;99.90
21261;DHT22;10788;47.930;9.766;2023-07-31T13:17:32;23.30;99.90
21261;DHT22;10788;47.930;9.766;2023-07-31T13:19:58;23.40;99.90
21261;DHT22;10788;47.930;9.766;2023-07-31T13:22:23;23.40;99.90
21261;DHT22;10788;47.930;9.766;2023-07-31T13:24:49;23.40;99.90
21261;DHT22;10788;47.930;9.766;2023-07-31T13:27:15;23.30;99.90
21261;DHT22;10788;47.930;9.766;2023-07-31T13:29:44;23.20;99.90
21261;DHT22;10788;47.930;9.766;2023-07-31T13:32:10;23.30;99.90
21261;DHT22;10788;47.930;9.766;2023-07-31T13:34:35;23.40;99.90
21261;DHT22;10788;47.930;9.766;2023-07-31T13:37:01;23.40;99.90
21261;DHT22;10788;47.930;9.766;2023-07-31T13:39:26;23.60;99.90
21261;DHT22;10788;47.930;9.766;2023-07-31T13:41:52;23.70;99.90
21261;DHT22;10788;47.930;9.766;2023-07-31T13:44:21;23.70;99.90
21261;DHT22;10788;47.930;9.766;2023-07-31T13:46:52;23.70;99.90
21261;DHT22;10788;47.930;9.766;2023-07-31T13:49:18;23.50;99.90
21261;DHT22;10788;47.930;9.766;2023-07-31T13:51:44;23.50;99.90
21261;DHT22;10788;47.930;9.766;2023-07-31T13:54:10;23.40;99.90
21261;DHT22;10788;47.930;9.766;2023-07-31T13:56:40;23.40;99.90
21261;DHT22;10788;47.930;9.766;2023-07-31T13:59:06;23.30;99.90
21261;DHT22;10788;47.930;9.766;2023-07-31T14:01:31;23.30;99.90
21261;DHT22;10788;47.930;9.766;2023-07-31T14:03:57;23.30;99.90
21261;DHT22;10788;47.930;9.766;2023-07-31T14:06:25;23.20;99.90
21261;DHT22;10788;47.930;9.766;2023-07-31T14:08:51;23.10;99.90
21261;DHT22;10788;47.930;9.766;2023-07-31T14:11:16;23.10;99.90
21261;DHT22;10788;47.930;9.766;2023-07-31T14:13:42;23.00;99.90
21261;DHT22;10788;47.930;9.766;2023-07-31T14:16:07;23.00;99.90
21261;DHT22;10788;47.930;9.766;2023-07-31T14:18:33;22.90;99.90
21261;DHT22;10788;47.930;9.766;2023-07-31T14:21:02;23.00;99.90
21261;DHT22;10788;47.930;9.766;2023-07-31T14:23:28;23.00;99.90
21261;DHT22;10788;47.930;9.766;2023-07-31T14:25:53;23.00;99.90
21261;DHT22;10788;47.930;9.766;2023-07-31T14:28:19;23.20;99.90
21261;DHT22;10788;47.930;9.766;2023-07-31T14:30:44;23.20;99.90
21261;DHT22;10788;47.930;9.766;2023-07-31T14:33:10;23.30;99.90
21261;DHT22;10788;47.930;9.766;2023-07-31T14:35:36;23.20;99.90
21261;DHT22;10788;47.930;9.766;2023-07-31T14:38:01;23.20;99.90
21261;DHT22;10788;47.930;9.766;2023-07-31T14:40:27;23.20;99.90
21261;DHT22;10788;47.930;9.766;2023-07-31T14:42:53;23.20;99.90
21261;DHT22;10788;47.930;9.766;2023-07-31T14:45:18;23.30;99.90
21261;DHT22;10788;47.930;9.766;2023-07-31T14:47:44;23.30;99.90
21261;DHT22;10788;47.930;9.766;2023-07-31T14:50:10;23.30;99.90
21261;DHT22;10788;47.930;9.766;2023-07-31T14:52:36;23.40;99.90
21261;DHT22;10788;47.930;9.766;2023-07-31T14:55:02;23.40;99.90
21261;DHT22;10788;47.930;9.766;2023-07-31T14:57:28;23.50;99.90
21261;DHT22;10788;47.930;9.766;2023-07-31T14:59:53;23.50;99.90
21261;DHT22;10788;47.930;9.766;2023-07-31T15:02:19;23.50;99.90
21261;DHT22;10788;47.930;9.766;2023-07-31T15:04:45;23.60;99.90
21261;DHT22;10788;47.930;9.766;2023-07-31T15:07:10;23.60;99.90
21261;DHT22;10788;47.930;9.766;2023-07-31T15:09:37;23.50;99.90
21261;DHT22;10788;47.930;9.766;2023-07-31T15:12:03;23.60;99.90
21261;DHT22;10788;47.930;9.766;2023-07-31T15:14:28;23.50;99.90
21261;DHT22;10788;47.930;9.766;2023-07-31T15:16:56;23.50;99.90
21261;DHT22;10788;47.930;9.766;2023-07-31T15:19:22;23.50;99.90
21261;DHT22;10788;47.930;9.766;2023-07-31T15:21:48;23.40;99.90
21261;DHT22;10788;47.930;9.766;2023-07-31T15:24:14;23.40;99.90
21261;DHT22;10788;47.930;9.766;2023-07-31T15:26:40;23.40;99.90
21261;DHT22;10788;47.930;9.766;2023-07-31T15:29:08;23.40;99.90
21261;DHT22;10788;47.930;9.766;2023-07-31T15:31:35;23.30;99.90
21261;DHT22;10788;47.930;9.766;2023-07-31T15:34:01;23.20;99.90
21261;DHT22;10788;47.930;9.766;2023-07-31T15:36:27;23.10;99.90
21261;DHT22;10788;47.930;9.766;2023-07-31T15:38:52;23.10;99.90
21261;DHT22;10788;47.930;9.766;2023-07-31T15:41:18;23.10;99.90
21261;DHT22;10788;47.930;9.766;2023-07-31T15:43:44;23.10;99.90